createdAt,value
2023-04-15T00:03:48.756Z,11.00
2023-04-15T00:11:15.467Z,10.50
2023-04-15T00:16:12.572Z,10.10
2023-04-15T00:23:38.278Z,9.90
2023-04-15T00:28:37.086Z,9.80
2023-04-15T00:33:34.366Z,10.10
2023-04-15T00:46:00.690Z,9.50
2023-04-15T00:48:29.387Z,10.20
2023-04-15T00:53:26.151Z,10.30
2023-04-15T00:55:55.113Z,10.20
2023-04-15T00:58:23.334Z,10.20
2023-04-15T01:00:54.625Z,10.20
2023-04-15T01:03:24.548Z,10.30
2023-04-15T01:05:58.208Z,10.20
2023-04-15T01:08:28.655Z,9.50
2023-04-15T01:10:58.233Z,9.50
2023-04-15T01:15:55.270Z,9.80
2023-04-15T01:25:57.415Z,9.50
2023-04-15T01:31:08.080Z,10.00
2023-04-15T01:36:09.804Z,10.80
2023-04-15T01:41:08.694Z,9.80
2023-04-15T01:58:33.852Z,9.80
2023-04-15T02:33:24.924Z,9.60
2023-04-15T02:45:48.203Z,9.60
2023-04-15T02:50:49.242Z,9.60
2023-04-15T02:53:19.911Z,9.50
2023-04-15T02:55:48.215Z,9.50
2023-04-15T02:58:16.419Z,9.50
2023-04-15T03:04:57.832Z,9.60
2023-04-15T03:07:28.072Z,9.70
2023-04-15T03:09:56.476Z,9.70
2023-04-15T03:12:24.867Z,9.70
2023-04-15T03:14:56.070Z,9.70
2023-04-15T03:17:31.312Z,9.60
2023-04-15T03:20:00.720Z,9.60
2023-04-15T03:22:31.153Z,9.60
2023-04-15T03:24:59.804Z,9.70
2023-04-15T03:27:28.109Z,9.60
2023-04-15T03:30:00.613Z,9.50
2023-04-15T03:32:32.506Z,9.50
2023-04-15T03:35:00.897Z,9.50
2023-04-15T03:37:30.715Z,9.50
2023-04-15T03:39:59.090Z,9.50
2023-04-15T03:42:28.588Z,9.50
2023-04-15T03:44:56.822Z,9.50
2023-04-15T03:47:25.126Z,9.50
2023-04-15T03:49:53.402Z,9.50
2023-04-15T03:52:21.648Z,9.50
2023-04-15T03:54:51.569Z,9.50
2023-04-15T03:57:19.732Z,9.50
2023-04-15T03:59:48.002Z,9.40
2023-04-15T04:02:16.425Z,9.50
2023-04-15T04:04:44.859Z,9.40
2023-04-15T04:07:17.179Z,9.30
2023-04-15T04:09:47.351Z,9.20
2023-04-15T04:12:17.062Z,9.30
2023-04-15T04:14:45.431Z,9.70
2023-04-15T04:19:43.648Z,9.60
2023-04-15T04:22:12.249Z,9.50
2023-04-15T04:24:40.435Z,9.40
2023-04-15T04:27:08.573Z,9.40
2023-04-15T04:29:38.147Z,9.50
2023-04-15T04:32:06.892Z,9.50
2023-04-15T04:34:35.101Z,9.40
2023-04-15T04:37:03.259Z,9.30
2023-04-15T04:39:31.657Z,9.40
2023-04-15T04:46:58.085Z,9.30
2023-04-15T04:49:26.415Z,9.40
2023-04-15T04:54:23.691Z,9.40
2023-04-15T04:56:51.860Z,9.60
2023-04-15T04:59:20.120Z,9.60
2023-04-15T05:01:48.315Z,9.60
2023-04-15T05:04:17.913Z,9.60
2023-04-15T05:06:46.173Z,9.40
2023-04-15T05:11:42.926Z,9.50
2023-04-15T05:14:11.158Z,9.70
2023-04-15T05:16:39.288Z,9.60
2023-04-15T05:19:07.821Z,9.50
2023-04-15T05:21:39.410Z,9.60
2023-04-15T05:24:08.119Z,9.70
2023-04-15T05:26:36.285Z,9.70
2023-04-15T05:29:04.660Z,9.70
2023-04-15T05:31:32.982Z,9.50
2023-04-15T05:34:01.562Z,9.50
2023-04-15T05:36:29.867Z,9.70
2023-04-15T05:38:59.639Z,10.00
2023-04-15T05:41:28.022Z,9.70
2023-04-15T05:43:56.278Z,9.80
2023-04-15T05:46:24.418Z,9.70
2023-04-15T05:48:53.801Z,9.70
2023-04-15T05:51:23.102Z,9.80
2023-04-15T05:53:51.333Z,9.70
2023-04-15T05:56:21.417Z,9.70
2023-04-15T05:58:50.588Z,10.00
2023-04-15T06:01:20.739Z,10.10
2023-04-15T06:03:49.068Z,10.20
2023-04-15T06:06:17.331Z,10.10
2023-04-15T06:08:45.570Z,10.10
2023-04-15T06:11:13.810Z,10.00
2023-04-15T06:13:43.614Z,10.10
2023-04-15T06:16:11.969Z,10.20
2023-04-15T06:18:40.385Z,10.20
2023-04-15T06:21:08.523Z,10.10
2023-04-15T06:23:36.954Z,10.10
2023-04-15T06:26:05.155Z,10.10
2023-04-15T06:28:34.055Z,10.10
2023-04-15T06:31:03.750Z,10.00
2023-04-15T06:36:00.871Z,10.30
2023-04-15T06:38:29.144Z,10.30
2023-04-15T06:43:25.986Z,10.50
2023-04-15T06:45:54.114Z,10.60
2023-04-15T06:48:23.857Z,10.40
2023-04-15T06:50:52.179Z,10.50
2023-04-15T06:53:20.451Z,10.20
2023-04-15T06:55:48.574Z,10.00
2023-04-15T06:58:17.260Z,10.20
2023-04-15T07:00:45.435Z,10.40
2023-04-15T07:03:15.170Z,10.10
2023-04-15T07:05:44.952Z,10.20
2023-04-15T07:08:14.071Z,10.00
2023-04-15T07:10:42.327Z,10.20
2023-04-15T07:13:10.568Z,10.10
2023-04-15T07:15:38.703Z,10.20
2023-04-15T07:18:06.925Z,10.10
2023-04-15T07:20:35.114Z,10.40
2023-04-15T07:23:11.356Z,10.40
2023-04-15T07:25:39.588Z,10.60
2023-04-15T07:28:07.785Z,10.20
2023-04-15T07:30:35.971Z,10.20
2023-04-15T07:33:04.525Z,10.20
2023-04-15T07:35:33.326Z,10.20
2023-04-15T07:38:01.775Z,10.00
2023-04-15T07:40:31.800Z,10.00
2023-04-15T07:43:00.070Z,9.80
2023-04-15T07:45:28.626Z,10.00
2023-04-15T07:47:57.434Z,10.20
2023-04-15T07:50:26.294Z,10.10
2023-04-15T07:52:54.744Z,10.20
2023-04-15T07:55:23.510Z,9.80
2023-04-15T07:57:53.173Z,10.30
2023-04-15T08:00:21.394Z,10.40
2023-04-15T08:02:50.053Z,10.40
2023-04-15T08:05:18.544Z,10.40
2023-04-15T08:07:46.956Z,10.20
2023-04-15T08:10:16.303Z,10.40
2023-04-15T08:12:44.565Z,10.30
2023-04-15T08:15:14.262Z,10.40
2023-04-15T08:17:42.571Z,10.30
2023-04-15T08:20:11.578Z,10.50
2023-04-15T08:22:39.697Z,10.50
2023-04-15T08:25:09.134Z,10.70
2023-04-15T08:27:37.673Z,10.30
2023-04-15T08:30:07.081Z,10.70
2023-04-15T08:32:37.566Z,10.70
2023-04-15T08:35:06.692Z,10.90
2023-04-15T08:37:34.876Z,11.20
2023-04-15T08:40:03.485Z,11.20
2023-04-15T08:42:36.369Z,11.20
2023-04-15T08:45:06.612Z,10.90
2023-04-15T08:47:37.517Z,11.10
2023-04-15T08:50:06.640Z,11.40
2023-04-15T08:55:04.974Z,11.20
2023-04-15T08:57:34.258Z,11.20
2023-04-15T09:00:05.504Z,11.20
2023-04-15T09:02:34.360Z,11.00
2023-04-15T09:05:06.430Z,11.20
2023-04-15T09:07:36.529Z,11.10
2023-04-15T09:10:05.513Z,11.00
2023-04-15T09:12:36.223Z,11.30
2023-04-15T09:15:05.225Z,11.10
2023-04-15T09:17:34.982Z,11.20
2023-04-15T09:20:13.151Z,11.20
2023-04-15T09:22:42.304Z,10.90
2023-04-15T09:25:29.209Z,11.00
2023-04-15T09:27:59.244Z,10.80
2023-04-15T09:30:28.490Z,11.00
2023-04-15T09:32:58.491Z,10.90
2023-04-15T09:35:29.208Z,10.80
2023-04-15T09:38:04.827Z,11.00
2023-04-15T09:40:37.884Z,11.00
2023-04-15T09:43:07.833Z,11.10
2023-04-15T09:45:38.509Z,11.30
2023-04-15T09:48:22.304Z,11.30
2023-04-15T09:50:56.573Z,11.10
2023-04-15T09:53:26.500Z,11.60
2023-04-15T09:55:56.281Z,11.50
2023-04-15T09:58:26.661Z,11.40
2023-04-15T10:00:56.522Z,11.40
2023-04-15T10:03:26.820Z,11.40
2023-04-15T10:05:58.020Z,11.90
2023-04-15T10:08:28.616Z,11.30
2023-04-15T10:10:57.202Z,11.50
2023-04-15T10:13:26.966Z,11.60
2023-04-15T10:16:00.555Z,11.50
2023-04-15T10:18:33.180Z,11.60
2023-04-15T10:21:03.539Z,11.40
2023-04-15T10:23:32.098Z,11.50
2023-04-15T10:26:01.234Z,11.30
2023-04-15T10:28:29.491Z,11.20
2023-04-15T10:30:58.474Z,11.10
2023-04-15T10:33:28.422Z,11.30
2023-04-15T10:35:57.497Z,11.10
2023-04-15T10:38:38.860Z,11.10
2023-04-15T10:41:20.371Z,11.20
2023-04-15T10:43:54.378Z,11.10
2023-04-15T10:46:37.288Z,11.20
2023-04-15T10:49:11.283Z,11.30
2023-04-15T10:51:42.568Z,11.60
2023-04-15T10:54:16.093Z,11.70
2023-04-15T10:56:44.845Z,11.90
2023-04-15T10:59:13.059Z,11.70
2023-04-15T11:01:56.813Z,11.90
2023-04-15T11:04:52.678Z,12.20
2023-04-15T11:07:41.434Z,11.60
2023-04-15T11:10:51.432Z,11.60
2023-04-15T11:13:28.395Z,11.20
2023-04-15T11:16:01.813Z,11.30
2023-04-15T11:18:32.917Z,11.30
2023-04-15T11:21:03.579Z,11.30
2023-04-15T11:23:37.574Z,11.40
2023-04-15T11:26:09.687Z,11.60
2023-04-15T11:28:41.223Z,11.50
2023-04-15T11:31:11.996Z,11.50
2023-04-15T11:33:56.578Z,11.80
2023-04-15T11:36:27.688Z,11.80
2023-04-15T11:38:56.334Z,12.30
2023-04-15T11:41:24.869Z,12.20
2023-04-15T11:43:54.690Z,12.20
2023-04-15T11:46:23.191Z,12.20
2023-04-15T11:51:21.915Z,12.70
2023-04-15T11:53:52.126Z,12.40
2023-04-15T11:56:22.233Z,12.20
2023-04-15T11:58:53.285Z,12.20
2023-04-15T12:01:31.741Z,11.70
2023-04-15T12:04:01.559Z,11.80
2023-04-15T12:06:35.126Z,12.10
2023-04-15T12:09:09.416Z,12.10
2023-04-15T12:11:43.861Z,12.40
2023-04-15T12:14:22.853Z,13.20
2023-04-15T12:16:55.017Z,13.40
2023-04-15T12:19:28.792Z,12.60
2023-04-15T12:22:01.354Z,13.10
2023-04-15T12:24:32.691Z,13.50
2023-04-15T12:27:05.010Z,13.10
2023-04-15T12:29:34.680Z,13.10
2023-04-15T12:32:09.125Z,13.20
2023-04-15T12:34:38.906Z,13.60
2023-04-15T12:37:09.571Z,14.10
2023-04-15T12:39:39.803Z,14.00
2023-04-15T12:42:08.420Z,13.60
2023-04-15T12:44:37.446Z,14.00
2023-04-15T12:47:09.441Z,14.10
2023-04-15T12:49:37.975Z,14.60
2023-04-15T12:52:06.880Z,14.80
2023-04-15T12:54:36.119Z,14.80
2023-04-15T12:57:06.873Z,14.80
2023-04-15T12:59:36.250Z,15.50
2023-04-15T13:02:07.308Z,15.20
2023-04-15T13:04:35.696Z,15.20
2023-04-15T13:07:04.285Z,14.70
2023-04-15T13:09:32.691Z,14.80
2023-04-15T13:12:00.888Z,15.50
2023-04-15T13:14:35.665Z,15.50
2023-04-15T13:17:10.184Z,15.50
2023-04-15T13:19:40.771Z,15.30
2023-04-15T13:22:09.492Z,14.70
2023-04-15T13:24:39.313Z,14.20
2023-04-15T13:27:09.424Z,14.20
2023-04-15T13:29:37.833Z,14.50
2023-04-15T13:32:09.563Z,15.10
2023-04-15T13:37:09.869Z,14.50
2023-04-15T13:39:38.279Z,15.20
2023-04-15T13:42:06.499Z,14.50
2023-04-15T13:44:34.953Z,14.30
2023-04-15T13:47:03.310Z,13.80
2023-04-15T13:49:31.625Z,13.90
2023-04-15T13:51:59.745Z,13.80
2023-04-15T13:54:37.153Z,14.10
2023-04-15T13:57:07.284Z,14.10
2023-04-15T13:59:35.968Z,14.10
2023-04-15T14:02:04.362Z,14.20
2023-04-15T14:07:03.403Z,14.50
2023-04-15T14:09:35.415Z,14.70
2023-04-15T14:14:32.427Z,13.40
2023-04-15T14:17:00.707Z,13.50
2023-04-15T14:19:31.363Z,12.90
2023-04-15T14:26:59.750Z,13.60
2023-04-15T14:29:28.147Z,13.60
2023-04-15T14:34:41.086Z,13.30
2023-04-15T14:37:09.474Z,12.70
2023-04-15T14:39:37.774Z,13.00
2023-04-15T14:42:07.466Z,13.40
2023-04-15T14:44:35.861Z,13.50
2023-04-15T14:47:04.121Z,13.60
2023-04-15T14:49:33.063Z,13.70
2023-04-15T14:52:01.343Z,13.80
2023-04-15T14:54:29.724Z,14.20
2023-04-15T14:56:58.564Z,14.10
2023-04-15T14:59:28.284Z,13.50
2023-04-15T15:04:26.056Z,14.00
2023-04-15T15:06:54.566Z,14.10
2023-04-15T15:11:52.125Z,13.30
2023-04-15T15:14:21.927Z,13.10
2023-04-15T15:16:51.799Z,12.90
2023-04-15T15:19:20.031Z,12.80
2023-04-15T15:21:48.294Z,13.10
2023-04-15T15:24:16.708Z,13.40
2023-04-15T15:29:13.438Z,13.60
2023-04-15T15:31:41.736Z,14.00
2023-04-15T15:34:11.402Z,14.00
2023-04-15T15:36:39.643Z,13.60
2023-04-15T15:39:08.010Z,13.50
2023-04-15T15:41:36.699Z,13.10
2023-04-15T15:44:04.966Z,12.80
2023-04-15T15:46:33.231Z,12.50
2023-04-15T15:49:03.562Z,12.50
2023-04-15T15:51:33.414Z,12.50
2023-04-15T15:54:01.807Z,12.60
2023-04-15T15:56:30.089Z,12.40
2023-04-15T16:01:27.176Z,12.10
2023-04-15T16:03:56.146Z,12.20
2023-04-15T16:08:54.573Z,12.10
2023-04-15T16:13:52.104Z,12.30
2023-04-15T16:16:20.379Z,12.20
2023-04-15T16:18:48.709Z,12.10
2023-04-15T16:21:17.194Z,12.30
2023-04-15T16:26:15.531Z,12.70
2023-04-15T16:31:12.810Z,12.90
2023-04-15T16:33:41.451Z,12.80
2023-04-15T16:38:38.239Z,12.50
2023-04-15T16:41:06.787Z,12.20
2023-04-15T16:43:36.638Z,12.20
2023-04-15T16:46:04.797Z,12.20
2023-04-15T16:48:33.187Z,12.20
2023-04-15T16:51:01.645Z,12.20
2023-04-15T16:53:29.924Z,12.30
2023-04-15T16:55:58.220Z,12.10
2023-04-15T17:00:57.467Z,11.80
2023-04-15T17:03:26.568Z,11.90
2023-04-15T17:05:54.847Z,11.70
2023-04-15T17:08:23.041Z,11.70
2023-04-15T17:10:52.040Z,11.60
2023-04-15T17:13:20.313Z,11.50
2023-04-15T17:15:48.961Z,11.50
2023-04-15T17:18:19.286Z,11.40
2023-04-15T17:20:47.498Z,11.40
2023-04-15T17:28:20.430Z,11.20
2023-04-15T17:30:49.022Z,11.40
2023-04-15T17:33:55.288Z,11.10
2023-04-15T17:43:38.767Z,12.00
2023-04-15T17:46:08.234Z,11.10
2023-04-15T17:48:38.545Z,10.70
2023-04-15T18:06:01.890Z,10.70
2023-04-15T18:08:32.554Z,10.80
2023-04-15T18:13:32.460Z,10.60
2023-04-15T18:18:29.886Z,10.60
2023-04-15T18:20:58.520Z,10.60
2023-04-15T18:23:28.560Z,10.50
2023-04-15T18:40:56.713Z,10.50
2023-04-15T18:50:54.128Z,10.50
2023-04-15T18:55:51.126Z,10.50
2023-04-15T18:58:21.304Z,10.40
2023-04-15T19:00:50.033Z,10.30
2023-04-15T19:08:15.921Z,10.20
2023-04-15T19:10:44.581Z,10.10
2023-04-15T19:13:17.067Z,10.00
2023-04-15T19:15:48.403Z,10.00
2023-04-15T19:18:16.619Z,9.90
2023-04-15T19:20:45.044Z,9.90
2023-04-15T19:28:11.489Z,10.00
2023-04-15T19:30:40.036Z,10.00
2023-04-15T19:33:09.773Z,10.00
2023-04-15T19:38:10.354Z,9.90
2023-04-15T19:43:07.186Z,9.90
2023-04-15T19:45:35.780Z,9.80
2023-04-15T19:48:04.143Z,9.90
2023-04-15T19:50:34.918Z,10.30
2023-04-15T19:53:03.203Z,9.60
2023-04-15T20:00:29.036Z,9.80
2023-04-15T20:05:27.771Z,10.00
2023-04-15T20:07:59.779Z,10.10
2023-04-15T20:10:28.341Z,9.60
2023-04-15T20:25:24.336Z,9.90
2023-04-15T20:30:21.310Z,9.30
2023-04-15T20:32:50.167Z,9.80
2023-04-15T20:40:19.125Z,9.70
2023-04-15T20:42:48.817Z,9.80
2023-04-15T20:47:46.368Z,9.80
2023-04-15T20:52:43.515Z,9.70
2023-04-15T20:57:40.474Z,9.70
2023-04-15T21:00:11.235Z,9.70
2023-04-15T21:05:10.195Z,9.60
2023-04-15T21:10:07.721Z,9.60
2023-04-15T21:15:06.789Z,9.60
2023-04-15T21:17:37.008Z,9.50
2023-04-15T21:27:31.425Z,9.70
2023-04-15T21:35:00.522Z,9.70
2023-04-15T21:37:28.711Z,9.60
2023-04-15T21:42:26.183Z,9.70
2023-04-15T21:44:54.517Z,9.70
2023-04-15T21:47:22.769Z,9.60
2023-04-15T21:49:52.689Z,9.60
2023-04-15T21:52:25.330Z,9.50
2023-04-15T21:57:29.432Z,9.50
2023-04-15T21:59:58.694Z,9.70
2023-04-15T22:02:27.405Z,13.10
2023-04-15T22:04:55.797Z,9.40
2023-04-15T22:07:25.531Z,9.40
2023-04-15T22:12:22.410Z,9.40
2023-04-15T22:14:50.672Z,9.50
2023-04-15T22:17:18.835Z,9.50
2023-04-15T22:19:47.412Z,9.40
2023-04-15T22:22:15.568Z,9.40
2023-04-15T22:24:45.155Z,9.30
2023-04-15T22:27:13.322Z,9.40
2023-04-15T22:29:41.586Z,9.60
2023-04-15T22:32:09.723Z,9.40
2023-04-15T22:34:37.920Z,9.40
2023-04-15T22:39:35.274Z,9.40
2023-04-15T22:42:04.939Z,9.50
2023-04-15T22:44:33.252Z,9.40
2023-04-15T22:47:01.383Z,9.40
2023-04-15T22:49:29.717Z,9.30
2023-04-15T22:51:57.941Z,9.00
2023-04-15T22:54:26.250Z,9.30
2023-04-15T22:56:54.420Z,9.10
2023-04-15T22:59:24.056Z,9.20
2023-04-15T23:01:52.846Z,9.20
2023-04-15T23:04:23.213Z,9.10
2023-04-15T23:06:56.206Z,9.20
2023-04-15T23:09:24.427Z,9.20
2023-04-15T23:11:52.729Z,9.20
2023-04-15T23:14:20.950Z,9.30
2023-04-15T23:16:50.618Z,9.30
2023-04-15T23:19:18.727Z,9.30
2023-04-15T23:21:46.988Z,9.30
2023-04-15T23:24:15.158Z,9.30
2023-04-15T23:26:43.713Z,9.50
2023-04-15T23:29:12.134Z,9.40
2023-04-15T23:31:41.686Z,9.40
2023-04-15T23:34:11.380Z,9.30
2023-04-15T23:36:39.754Z,9.40
2023-04-15T23:39:08.634Z,9.30
2023-04-15T23:41:37.885Z,9.20
2023-04-15T23:44:06.707Z,9.20
2023-04-15T23:46:35.018Z,9.20
2023-04-15T23:49:03.261Z,9.20
2023-04-15T23:51:32.806Z,9.30
2023-04-15T23:54:01.407Z,9.30
2023-04-15T23:56:29.777Z,9.50
2023-04-15T23:58:57.858Z,9.30
